Time;durP1;ratioP1;P1;durP2;ratioP2;P2;SDS_P1;SDS_P2;PMS_P1;PMS_P2;Temp;Humidity;BMP_temperature;BMP_pressure;BME280_temperature;BME280_humidity;BME280_pressure;Samples;Min_cycle;Max_cycle;Signal;HPM_P1;HPM_P2
2022/03/22 00:00:41;;;;;;;34.90;23.55;;;5.60;99.90;;;;;;5049574;28;20075;-71
2022/03/22 00:03:06;;;;;;;32.22;22.35;;;5.70;99.90;;;;;;5054804;28;20033;-72
2022/03/22 00:05:33;;;;;;;32.83;22.75;;;5.70;99.90;;;;;;5047993;28;20036;-72
2022/03/22 00:08:03;;;;;;;32.53;21.85;;;5.80;99.90;;;;;;5062729;28;20238;-73
2022/03/22 00:10:29;;;;;;;34.50;22.75;;;5.80;99.90;;;;;;5069143;28;20141;-72
2022/03/22 00:12:54;;;;;;;31.42;21.40;;;5.90;99.90;;;;;;5062052;28;20323;-72
2022/03/22 00:15:20;;;;;;;31.35;21.80;;;5.90;99.90;;;;;;5074294;28;20044;-73
2022/03/22 00:17:46;;;;;;;36.90;24.15;;;5.90;99.90;;;;;;5030573;28;20335;-72
2022/03/22 00:20:12;;;;;;;40.60;26.65;;;6.00;99.90;;;;;;5048417;28;20306;-72
2022/03/22 00:22:39;;;;;;;37.60;25.23;;;6.30;99.90;;;;;;5045273;28;20339;-72
2022/03/22 00:25:06;;;;;;;40.78;27.95;;;6.50;99.90;;;;;;5046063;28;20093;-72
2022/03/22 00:27:50;;;;;;;39.35;27.45;;;6.50;99.90;;;;;;5062421;28;20044;-72
2022/03/22 00:30:18;;;;;;;37.10;25.35;;;6.60;99.90;;;;;;5051872;28;20036;-72
2022/03/22 00:32:44;;;;;;;36.67;23.20;;;6.50;99.90;;;;;;5057877;28;20346;-72
2022/03/22 00:35:10;;;;;;;36.10;23.95;;;6.30;99.90;;;;;;5067780;28;20115;-72
2022/03/22 00:37:46;;;;;;;36.63;23.35;;;6.10;99.90;;;;;;5062393;28;20044;-72
2022/03/22 00:40:22;;;;;;;34.50;23.40;;;6.10;99.90;;;;;;5070117;28;20044;-72
2022/03/22 00:42:49;;;;;;;38.88;25.35;;;6.10;99.90;;;;;;5062207;28;20104;-72
2022/03/22 00:45:16;;;;;;;43.17;27.38;;;6.50;99.90;;;;;;5061866;28;20055;-71
2022/03/22 00:47:47;;;;;;;41.85;28.15;;;6.80;99.90;;;;;;5045628;28;20380;-72
2022/03/22 00:50:15;;;;;;;40.80;27.40;;;7.00;99.90;;;;;;5075768;28;20166;-72
2022/03/22 00:52:41;;;;;;;43.45;28.45;;;7.10;99.90;;;;;;5064190;28;20117;-72
2022/03/22 00:55:08;;;;;;;41.05;27.40;;;7.20;99.90;;;;;;5059499;28;20086;-72
2022/03/22 00:57:34;;;;;;;41.30;27.92;;;7.20;99.90;;;;;;5062119;28;20116;-72
2022/03/22 01:00:07;;;;;;;38.75;25.50;;;7.20;99.90;;;;;;5067227;28;20040;-72
2022/03/22 01:02:38;;;;;;;36.45;24.88;;;7.30;99.90;;;;;;5060623;28;20222;-72
2022/03/22 01:05:07;;;;;;;41.05;27.45;;;7.30;99.90;;;;;;5046409;28;20041;-73
2022/03/22 01:07:34;;;;;;;41.15;26.95;;;7.30;99.90;;;;;;5065015;28;20196;-73
2022/03/22 01:10:06;;;;;;;36.08;25.02;;;7.30;99.90;;;;;;5049954;28;20079;-72
2022/03/22 01:12:40;;;;;;;34.40;24.35;;;7.20;99.90;;;;;;5046170;28;20467;-72
2022/03/22 01:15:15;;;;;;;34.65;24.02;;;7.10;99.90;;;;;;5063418;28;20055;-73
2022/03/22 01:17:50;;;;;;;34.85;24.13;;;6.70;99.90;;;;;;5051828;28;20079;-72
2022/03/22 01:20:20;;;;;;;31.95;22.83;;;6.50;99.90;;;;;;5060763;28;20119;-72
2022/03/22 01:22:47;;;;;;;34.42;22.98;;;6.30;99.90;;;;;;5051184;28;20341;-72
2022/03/22 01:25:25;;;;;;;33.50;22.90;;;6.10;99.90;;;;;;5045183;28;20048;-72
2022/03/22 01:27:51;;;;;;;37.65;26.38;;;6.20;99.90;;;;;;5062920;28;20115;-72
2022/03/22 01:30:20;;;;;;;34.42;24.42;;;6.20;99.90;;;;;;5060687;28;20044;-72
2022/03/22 01:32:50;;;;;;;42.42;27.80;;;6.20;99.90;;;;;;5066610;28;20072;-72
2022/03/22 01:35:16;;;;;;;36.55;24.92;;;6.40;99.90;;;;;;5061150;28;20037;-72
2022/03/22 01:37:50;;;;;;;35.78;22.90;;;6.30;99.90;;;;;;5049721;28;20326;-72
2022/03/22 01:40:18;;;;;;;36.05;24.52;;;6.20;99.90;;;;;;5056078;28;20045;-72
2022/03/22 01:42:44;;;;;;;35.05;23.70;;;6.20;99.90;;;;;;5049412;28;20102;-73
2022/03/22 01:45:10;;;;;;;37.67;24.00;;;6.10;99.90;;;;;;5052068;28;20044;-73
2022/03/22 01:47:38;;;;;;;32.40;21.50;;;6.10;99.90;;;;;;5065984;28;20052;-73
2022/03/22 01:50:06;;;;;;;33.05;21.10;;;6.10;99.90;;;;;;5080858;28;20078;-73
2022/03/22 01:52:34;;;;;;;35.05;22.65;;;6.10;99.90;;;;;;5063779;28;20090;-72
2022/03/22 01:55:01;;;;;;;32.20;21.92;;;6.00;99.90;;;;;;5066751;28;20290;-72
2022/03/22 01:57:30;;;;;;;31.38;20.65;;;6.00;99.90;;;;;;5064841;28;20090;-71
2022/03/22 01:59:56;;;;;;;32.28;20.38;;;6.00;99.90;;;;;;5075253;28;20044;-72
2022/03/22 02:07:57;;;;;;;36.83;24.02;;;6.20;99.90;;;;;;5068896;28;20283;-72
2022/03/22 02:10:23;;;;;;;40.28;25.63;;;6.20;99.90;;;;;;5049479;28;20342;-70
2022/03/22 02:12:49;;;;;;;46.08;28.48;;;6.30;99.90;;;;;;5067325;28;20044;-71
2022/03/22 02:15:14;;;;;;;46.08;29.42;;;6.70;99.90;;;;;;5048924;28;20226;-72
2022/03/22 02:17:44;;;;;;;45.85;30.23;;;6.90;99.90;;;;;;5064334;28;20048;-72
2022/03/22 02:20:10;;;;;;;43.58;27.75;;;7.10;99.90;;;;;;5049146;28;20260;-72
2022/03/22 02:23:05;;;;;;;39.45;26.63;;;7.10;99.90;;;;;;5048931;28;20053;-73
2022/03/22 02:25:33;;;;;;;41.08;25.98;;;7.10;99.90;;;;;;5091231;28;20266;-73
2022/03/22 02:27:58;;;;;;;38.20;25.40;;;7.20;99.90;;;;;;5040928;28;20033;-73
2022/03/22 02:30:25;;;;;;;39.50;24.63;;;7.10;99.90;;;;;;5061830;28;20103;-73
2022/03/22 02:32:54;;;;;;;32.88;22.67;;;6.90;99.90;;;;;;5045418;28;20263;-73
2022/03/22 02:35:21;;;;;;;40.95;25.85;;;6.80;99.90;;;;;;5066494;28;20123;-72
2022/03/22 02:37:47;;;;;;;39.30;26.05;;;6.80;99.90;;;;;;5071233;28;20043;-73
2022/03/22 02:40:13;;;;;;;42.72;26.20;;;7.00;99.90;;;;;;5054857;28;20032;-73
2022/03/22 02:42:50;;;;;;;40.85;26.90;;;7.10;99.90;;;;;;5049095;28;20321;-73
2022/03/22 02:45:18;;;;;;;42.08;25.88;;;7.20;99.90;;;;;;5060700;28;20118;-72
2022/03/22 02:47:44;;;;;;;38.33;25.00;;;7.20;99.90;;;;;;5036560;28;20060;-70
2022/03/22 02:50:11;;;;;;;41.05;26.80;;;7.20;99.90;;;;;;5060745;28;20196;-73
2022/03/22 02:52:38;;;;;;;40.40;25.23;;;7.20;99.90;;;;;;5069005;28;20096;-73
2022/03/22 02:55:08;;;;;;;36.58;25.77;;;7.20;99.90;;;;;;5078422;28;20360;-73
2022/03/22 02:57:35;;;;;;;39.28;25.98;;;7.20;99.90;;;;;;5062338;28;20049;-73
2022/03/22 03:00:03;;;;;;;37.28;25.58;;;7.20;99.90;;;;;;5062346;28;20036;-73
2022/03/22 03:02:29;;;;;;;36.85;24.23;;;7.10;99.90;;;;;;5049703;28;20040;-73
2022/03/22 03:04:55;;;;;;;35.72;21.88;;;6.90;99.90;;;;;;5072094;28;20049;-73
2022/03/22 03:07:21;;;;;;;33.90;21.80;;;6.70;99.90;;;;;;5045219;28;20223;-73
2022/03/22 03:09:47;;;;;;;32.58;22.67;;;6.40;99.90;;;;;;5057245;28;20040;-71
2022/03/22 03:12:12;;;;;;;31.88;22.10;;;6.20;99.90;;;;;;5061145;28;20040;-71
2022/03/22 03:14:38;;;;;;;29.95;21.33;;;6.10;99.90;;;;;;5063080;28;20040;-71
2022/03/22 03:17:05;;;;;;;44.17;28.65;;;6.10;99.90;;;;;;5058047;28;20052;-74
2022/03/22 03:19:32;;;;;;;44.15;27.52;;;6.50;99.90;;;;;;5019236;28;20068;-74
2022/03/22 03:21:58;;;;;;;44.72;29.75;;;6.70;99.90;;;;;;5060783;28;20083;-72
2022/03/22 03:24:24;;;;;;;45.58;29.05;;;7.00;99.90;;;;;;5043575;28;20044;-72
2022/03/22 03:26:50;;;;;;;45.55;27.88;;;7.10;99.90;;;;;;5072111;28;20032;-73
2022/03/22 03:29:16;;;;;;;42.38;27.35;;;7.10;99.90;;;;;;5071983;28;20284;-73
2022/03/22 03:31:42;;;;;;;44.53;27.25;;;7.20;99.90;;;;;;5079051;28;20068;-73
2022/03/22 03:34:08;;;;;;;40.22;27.02;;;7.30;99.90;;;;;;5068851;28;20243;-73
2022/03/22 03:36:33;;;;;;;42.22;26.33;;;7.30;99.90;;;;;;5061209;28;20243;-72
2022/03/22 03:39:01;;;;;;;40.13;25.30;;;7.30;99.90;;;;;;5072020;28;20033;-72
2022/03/22 03:47:04;;;;;;;42.97;28.05;;;7.30;99.90;;;;;;5075469;28;20029;-73
2022/03/22 03:49:43;;;;;;;44.00;27.88;;;7.40;99.90;;;;;;5059383;28;20196;-72
2022/03/22 03:52:12;;;;;;;45.78;28.25;;;7.50;99.90;;;;;;5060039;28;20358;-72
2022/03/22 03:54:38;;;;;;;45.08;27.90;;;7.40;99.90;;;;;;5063003;28;20055;-73
2022/03/22 03:57:05;;;;;;;45.88;28.17;;;7.30;99.90;;;;;;5044688;28;20075;-72
2022/03/22 03:59:31;;;;;;;42.47;27.05;;;7.20;99.90;;;;;;5036507;28;20047;-72
2022/03/22 04:01:58;;;;;;;48.90;28.42;;;7.10;99.90;;;;;;5063842;28;20033;-72
2022/03/22 04:04:24;;;;;;;42.08;25.75;;;7.10;99.90;;;;;;5062076;28;20044;-72
2022/03/22 04:06:50;;;;;;;40.67;26.83;;;7.00;99.90;;;;;;5061315;28;20051;-73
2022/03/22 04:09:16;;;;;;;36.65;25.35;;;6.90;99.90;;;;;;5062190;28;20082;-72
2022/03/22 04:11:43;;;;;;;37.67;25.52;;;6.80;99.90;;;;;;5058018;28;20307;-72
2022/03/22 04:14:10;;;;;;;36.58;25.48;;;6.80;99.90;;;;;;5059279;28;20336;-72
2022/03/22 04:16:38;;;;;;;37.35;25.05;;;6.90;99.90;;;;;;5062355;28;20049;-72
2022/03/22 04:19:08;;;;;;;42.05;27.42;;;6.90;99.90;;;;;;5066158;28;20216;-72
2022/03/22 04:21:39;;;;;;;43.80;27.65;;;7.00;99.90;;;;;;5060859;28;20052;-72
2022/03/22 04:24:10;;;;;;;43.25;27.42;;;7.00;99.90;;;;;;5023854;28;20048;-71
2022/03/22 04:26:41;;;;;;;43.30;27.17;;;7.10;99.90;;;;;;5043678;28;20047;-72
2022/03/22 04:34:41;;;;;;;43.53;27.08;;;7.10;99.90;;;;;;5057899;28;20094;-73
2022/03/22 04:37:12;;;;;;;45.50;29.60;;;7.10;99.90;;;;;;5061317;28;20247;-72
2022/03/22 04:39:39;;;;;;;45.47;26.98;;;7.00;99.90;;;;;;5050953;28;20052;-73
2022/03/22 04:42:06;;;;;;;42.22;27.58;;;7.00;99.90;;;;;;5043382;28;20040;-73
2022/03/22 04:44:31;;;;;;;40.53;25.35;;;7.00;99.90;;;;;;5059299;28;20042;-73
2022/03/22 04:46:58;;;;;;;45.33;28.65;;;7.00;99.90;;;;;;5044130;28;20261;-73
2022/03/22 04:49:25;;;;;;;42.08;26.83;;;6.90;99.90;;;;;;5060486;28;20434;-74
2022/03/22 04:57:28;;;;;;;40.42;26.73;;;6.80;99.90;;;;;;5045519;28;20226;-73
2022/03/22 04:59:54;;;;;;;36.38;24.52;;;6.80;99.90;;;;;;5060909;28;20040;-73
2022/03/22 05:02:21;;;;;;;39.30;26.27;;;6.70;99.90;;;;;;5061391;28;20053;-73
2022/03/22 05:04:46;;;;;;;36.72;24.90;;;6.70;99.90;;;;;;5049749;28;20075;-73
2022/03/22 05:07:12;;;;;;;39.08;25.05;;;6.70;99.90;;;;;;5042792;28;20077;-73
2022/03/22 05:09:38;;;;;;;37.53;26.02;;;6.60;99.90;;;;;;5057795;28;20035;-74
2022/03/22 05:12:04;;;;;;;41.75;25.85;;;6.40;99.90;;;;;;5060946;28;20051;-74
2022/03/22 05:14:30;;;;;;;40.50;26.08;;;6.50;99.90;;;;;;5045767;28;20061;-73
2022/03/22 05:16:57;;;;;;;38.47;25.63;;;6.60;99.90;;;;;;5075592;28;20543;-74
2022/03/22 05:19:23;;;;;;;44.55;26.40;;;6.50;99.90;;;;;;5043245;28;20112;-74
2022/03/22 05:21:49;;;;;;;41.03;27.23;;;6.50;99.90;;;;;;5044358;28;20053;-72
2022/03/22 05:24:15;;;;;;;35.40;24.48;;;6.40;99.90;;;;;;5037336;28;20048;-74
2022/03/22 05:26:40;;;;;;;37.35;24.77;;;6.30;99.90;;;;;;5028296;28;20051;-74
2022/03/22 05:29:06;;;;;;;40.75;26.05;;;6.30;99.90;;;;;;5027347;28;20033;-74
2022/03/22 05:31:34;;;;;;;39.72;26.10;;;6.20;99.90;;;;;;5023130;28;20214;-74
2022/03/22 05:34:00;;;;;;;40.78;25.90;;;6.30;99.90;;;;;;5015854;28;20285;-72
2022/03/22 05:36:27;;;;;;;45.10;27.77;;;6.40;99.90;;;;;;5025757;28;20047;-72
2022/03/22 05:38:53;;;;;;;40.58;27.75;;;6.40;99.90;;;;;;5025885;28;20382;-72
2022/03/22 05:41:20;;;;;;;42.60;26.30;;;6.30;99.90;;;;;;5042663;28;20112;-72
2022/03/22 05:43:47;;;;;;;39.40;25.85;;;6.40;99.90;;;;;;5026517;28;20219;-71
2022/03/22 05:46:15;;;;;;;42.80;25.05;;;6.30;99.90;;;;;;5040340;28;20044;-71
2022/03/22 05:48:40;;;;;;;39.60;25.25;;;6.50;99.90;;;;;;5003229;28;20041;-72
2022/03/22 05:51:06;;;;;;;38.00;25.13;;;6.40;99.90;;;;;;5026576;28;20036;-71
2022/03/22 05:53:32;;;;;;;40.30;25.55;;;6.50;99.90;;;;;;5021036;28;20099;-71
2022/03/22 05:55:58;;;;;;;40.88;25.23;;;6.60;99.90;;;;;;5024510;28;20205;-71
2022/03/22 05:58:24;;;;;;;37.40;25.08;;;6.60;99.90;;;;;;5026888;28;20041;-72
2022/03/22 06:00:50;;;;;;;39.75;26.65;;;6.60;99.90;;;;;;5007554;28;20122;-72
2022/03/22 06:03:16;;;;;;;39.88;25.63;;;6.70;99.90;;;;;;5025687;28;20139;-73
2022/03/22 06:05:45;;;;;;;38.17;25.58;;;6.60;99.90;;;;;;5042010;28;20071;-72
2022/03/22 06:08:10;;;;;;;42.67;27.17;;;6.70;99.90;;;;;;5041428;28;20220;-72
2022/03/22 06:10:37;;;;;;;44.20;26.30;;;6.80;99.90;;;;;;5038712;28;20043;-73
2022/03/22 06:13:03;;;;;;;42.90;26.65;;;6.80;99.90;;;;;;5038528;28;20119;-73
2022/03/22 06:15:31;;;;;;;44.05;27.50;;;6.80;99.90;;;;;;5027970;28;20033;-72
2022/03/22 06:18:01;;;;;;;39.45;24.80;;;6.80;99.90;;;;;;5027613;28;20048;-73
2022/03/22 06:20:36;;;;;;;41.63;25.80;;;6.90;99.90;;;;;;5050686;28;20052;-74
2022/03/22 06:23:04;;;;;;;41.83;26.40;;;6.90;99.90;;;;;;5084000;28;20151;-72
2022/03/22 06:25:31;;;;;;;41.65;26.25;;;7.00;99.90;;;;;;5073200;28;20253;-72
2022/03/22 06:27:58;;;;;;;40.72;26.38;;;7.10;99.90;;;;;;5048344;28;20112;-72
2022/03/22 06:30:25;;;;;;;44.05;25.98;;;7.10;99.90;;;;;;5077169;28;20107;-73
2022/03/22 06:32:59;;;;;;;42.35;26.50;;;7.20;99.90;;;;;;5047623;28;20037;-73
2022/03/22 06:35:33;;;;;;;41.20;26.88;;;7.30;99.90;;;;;;5066086;28;20078;-72
2022/03/22 06:38:00;;;;;;;40.30;25.52;;;7.30;99.90;;;;;;5058257;28;20040;-73
2022/03/22 06:40:29;;;;;;;38.75;25.45;;;7.30;99.90;;;;;;5073687;28;20044;-72
2022/03/22 06:43:01;;;;;;;42.03;25.48;;;7.40;99.90;;;;;;5059404;28;20075;-73
2022/03/22 06:45:26;;;;;;;36.15;23.20;;;7.60;99.90;;;;;;5061823;28;20355;-73
2022/03/22 06:47:52;;;;;;;40.95;23.77;;;7.60;99.90;;;;;;5061706;28;20033;-72
2022/03/22 06:50:19;;;;;;;37.03;24.65;;;7.60;99.90;;;;;;5061690;28;20044;-73
2022/03/22 06:52:45;;;;;;;35.55;23.88;;;7.60;99.90;;;;;;5048707;28;20032;-73
2022/03/22 06:55:14;;;;;;;33.83;23.88;;;7.60;99.90;;;;;;5075270;28;20383;-73
2022/03/22 06:57:40;;;;;;;35.30;24.77;;;7.80;99.90;;;;;;5062127;28;20327;-72
2022/03/22 07:00:09;;;;;;;37.83;26.15;;;7.90;99.90;;;;;;5049948;28;20055;-73
2022/03/22 07:02:36;;;;;;;38.92;25.85;;;8.10;99.90;;;;;;5060125;28;20056;-73
2022/03/22 07:05:05;;;;;;;40.67;27.27;;;8.20;99.90;;;;;;5079915;28;20334;-73
2022/03/22 07:07:31;;;;;;;38.35;26.75;;;8.20;99.90;;;;;;5076718;28;20049;-72
2022/03/22 07:09:57;;;;;;;39.28;25.33;;;8.40;99.90;;;;;;5077154;28;20143;-73
2022/03/22 07:12:23;;;;;;;39.25;26.00;;;8.50;99.90;;;;;;5062917;28;20107;-73
2022/03/22 07:14:49;;;;;;;40.17;26.13;;;8.40;99.90;;;;;;5069391;28;20063;-74
2022/03/22 07:17:15;;;;;;;39.92;26.63;;;8.40;99.90;;;;;;5055736;28;20049;-74
2022/03/22 07:19:41;;;;;;;37.88;25.75;;;8.40;99.90;;;;;;5077408;28;20057;-74
2022/03/22 07:22:10;;;;;;;40.22;26.42;;;8.50;99.90;;;;;;5057359;28;20064;-72
2022/03/22 07:24:36;;;;;;;43.72;27.80;;;8.50;99.90;;;;;;5075547;28;20052;-73
2022/03/22 07:27:02;;;;;;;41.85;27.38;;;8.70;99.90;;;;;;5063788;28;20091;-72
2022/03/22 07:29:28;;;;;;;42.58;27.75;;;8.70;99.90;;;;;;5061318;28;20028;-73
2022/03/22 07:31:56;;;;;;;47.90;28.35;;;8.80;99.90;;;;;;5077039;28;20041;-73
2022/03/22 07:34:23;;;;;;;44.15;28.15;;;9.10;99.90;;;;;;5077314;28;20327;-73
2022/03/22 07:36:52;;;;;;;50.22;31.45;;;9.00;99.90;;;;;;5063689;28;20044;-72
2022/03/22 07:39:19;;;;;;;42.05;28.13;;;9.20;99.90;;;;;;5060992;28;20052;-72
2022/03/22 07:41:49;;;;;;;40.70;27.52;;;9.40;99.90;;;;;;5079549;28;20118;-73
2022/03/22 07:44:15;;;;;;;38.03;25.90;;;9.50;99.90;;;;;;5077860;28;20390;-73
2022/03/22 07:46:45;;;;;;;38.40;25.65;;;9.60;99.90;;;;;;5077286;28;20044;-72
2022/03/22 07:54:42;;;;;;;37.40;24.60;;;10.10;99.90;;;;;;5046818;28;20116;-75
2022/03/22 07:57:08;;;;;;;34.13;24.42;;;10.30;99.90;;;;;;5046807;28;20105;-72
2022/03/22 07:59:35;;;;;;;38.65;25.48;;;10.30;99.90;;;;;;5062643;28;20040;-73
2022/03/22 08:02:01;;;;;;;38.20;25.05;;;10.50;99.90;;;;;;5063808;28;20330;-72
2022/03/22 08:04:27;;;;;;;33.60;24.20;;;10.60;99.90;;;;;;5071346;28;20053;-75
2022/03/22 08:06:53;;;;;;;37.75;24.95;;;10.80;99.90;;;;;;5044115;28;20250;-72
2022/03/22 08:09:19;;;;;;;33.70;23.00;;;10.80;99.90;;;;;;5054585;28;20041;-74
2022/03/22 08:11:45;;;;;;;35.15;24.13;;;10.80;99.90;;;;;;5047014;28;20099;-71
2022/03/22 08:14:11;;;;;;;37.85;24.65;;;10.80;99.90;;;;;;5073740;28;20334;-73
2022/03/22 08:16:37;;;;;;;36.45;24.23;;;10.90;99.90;;;;;;5078055;28;20063;-73
2022/03/22 08:19:05;;;;;;;37.92;24.70;;;10.90;99.90;;;;;;5078728;28;20044;-73
2022/03/22 08:21:31;;;;;;;37.08;25.08;;;11.00;99.90;;;;;;5054939;28;20105;-71
2022/03/22 08:23:58;;;;;;;34.95;24.98;;;11.00;99.90;;;;;;5073197;28;20413;-73
2022/03/22 08:26:24;;;;;;;38.33;25.02;;;11.20;99.90;;;;;;5073542;28;20068;-73
2022/03/22 08:28:49;;;;;;;39.10;24.80;;;11.30;99.90;;;;;;5073379;28;20032;-72
2022/03/22 08:31:15;;;;;;;37.08;24.23;;;11.50;99.90;;;;;;5066335;28;20107;-71
2022/03/22 08:33:41;;;;;;;36.00;24.05;;;11.50;99.90;;;;;;5072245;28;20302;-72
2022/03/22 08:36:07;;;;;;;33.80;23.15;;;11.60;99.90;;;;;;5067697;28;20044;-71
2022/03/22 08:38:34;;;;;;;32.08;23.05;;;11.70;99.90;;;;;;5072923;28;20047;-74
2022/03/22 08:41:01;;;;;;;31.27;22.05;;;11.70;99.90;;;;;;5051664;28;20192;-73
2022/03/22 08:43:27;;;;;;;32.75;22.75;;;12.00;99.90;;;;;;5049863;28;20346;-75
2022/03/22 08:45:54;;;;;;;31.15;22.20;;;12.30;99.90;;;;;;5048001;28;20060;-74
2022/03/22 08:48:20;;;;;;;30.52;21.23;;;12.40;99.90;;;;;;5072112;28;20123;-73
2022/03/22 08:50:51;;;;;;;34.10;23.95;;;12.50;99.90;;;;;;5077304;28;20041;-73
2022/03/22 08:53:19;;;;;;;32.60;23.02;;;12.60;99.90;;;;;;5051435;28;20246;-72
2022/03/22 08:55:48;;;;;;;33.10;22.63;;;12.80;99.90;;;;;;5070241;28;20123;-74
2022/03/22 08:58:16;;;;;;;30.63;21.95;;;12.90;99.90;;;;;;5055626;28;20059;-75
2022/03/22 09:00:42;;;;;;;33.35;22.27;;;13.10;99.90;;;;;;5065592;28;20144;-73
2022/03/22 09:03:10;;;;;;;30.00;21.58;;;13.00;99.90;;;;;;5057581;28;20052;-73
2022/03/22 09:08:21;;;;;;;28.58;20.15;;;12.90;99.90;;;;;;5060922;28;20223;-74
2022/03/22 09:10:51;;;;;;;31.10;20.40;;;13.10;99.90;;;;;;5043567;28;20103;-73
2022/03/22 09:13:18;;;;;;;28.10;21.20;;;13.30;99.90;;;;;;5044834;28;20085;-73
2022/03/22 09:15:44;;;;;;;32.67;22.80;;;13.40;99.90;;;;;;5049957;28;20335;-73
2022/03/22 09:18:21;;;;;;;32.50;20.77;;;13.60;99.90;;;;;;5060653;28;20392;-73
2022/03/22 09:20:47;;;;;;;33.67;21.05;;;13.80;99.90;;;;;;5076326;28;20060;-71
2022/03/22 09:23:14;;;;;;;29.33;19.83;;;13.80;98.50;;;;;;5060244;28;20084;-72
2022/03/22 09:25:42;;;;;;;25.75;19.00;;;13.90;97.20;;;;;;5059749;28;20323;-73
2022/03/22 09:28:08;;;;;;;30.95;21.20;;;14.10;98.00;;;;;;5076698;28;20044;-72
2022/03/22 09:30:35;;;;;;;31.65;22.27;;;14.30;97.50;;;;;;5060380;28;20165;-72
2022/03/22 09:33:03;;;;;;;31.42;21.50;;;14.50;99.90;;;;;;5076170;28;20048;-73
2022/03/22 09:35:30;;;;;;;33.60;21.25;;;14.60;95.60;;;;;;5076956;28;20112;-72
2022/03/22 09:37:59;;;;;;;31.05;21.65;;;14.70;99.90;;;;;;5077843;28;20126;-71
2022/03/22 09:40:27;;;;;;;27.60;20.42;;;14.70;93.00;;;;;;5060059;28;20260;-72
2022/03/22 09:42:55;;;;;;;28.27;20.17;;;14.90;96.10;;;;;;5076681;28;20048;-74
2022/03/22 09:45:30;;;;;;;31.05;20.92;;;14.80;90.50;;;;;;5076657;28;20060;-73
2022/03/22 09:47:57;;;;;;;31.42;21.60;;;14.90;92.10;;;;;;5060547;28;20051;-74
2022/03/22 09:51:44;;;;;;;32.22;22.55;;;15.00;89.60;;;;;;5043174;28;20076;-72
2022/03/22 09:53:12;;;;;;;27.02;20.42;;;15.50;99.00;;;;;;5059357;28;20267;-74
2022/03/22 09:55:37;;;;;;;27.95;20.02;;;15.70;84.40;;;;;;5043452;28;20082;-74
2022/03/22 09:58:04;;;;;;;33.40;21.80;;;16.00;84.50;;;;;;5072380;28;20338;-72
2022/03/22 10:00:29;;;;;;;34.00;22.13;;;15.70;81.80;;;;;;5076183;28;20357;-74
2022/03/22 10:02:56;;;;;;;32.20;22.85;;;15.80;83.00;;;;;;5059262;28;20079;-73
2022/03/22 10:05:23;;;;;;;32.78;22.52;;;15.80;81.70;;;;;;5043251;28;20399;-73
2022/03/22 10:08:00;;;;;;;30.52;21.58;;;16.20;91.20;;;;;;5066689;28;20055;-74
2022/03/22 10:10:27;;;;;;;27.10;19.83;;;16.60;84.20;;;;;;5042825;28;20068;-73
2022/03/22 10:13:01;;;;;;;29.75;20.25;;;16.70;81.40;;;;;;5042242;28;20216;-72
2022/03/22 10:15:37;;;;;;;27.30;21.02;;;17.10;79.00;;;;;;5059376;28;20053;-72
2022/03/22 10:18:10;;;;;;;29.25;21.10;;;16.90;76.70;;;;;;5066616;28;20041;-72
2022/03/22 10:20:38;;;;;;;30.80;21.45;;;16.50;73.00;;;;;;5075545;28;20101;-74
2022/03/22 10:23:07;;;;;;;29.73;22.20;;;17.20;76.70;;;;;;5075613;28;20080;-74
2022/03/22 10:25:37;;;;;;;31.63;21.92;;;17.60;77.00;;;;;;5059517;28;20119;-74
2022/03/22 10:28:04;;;;;;;31.23;22.05;;;17.80;79.60;;;;;;5070519;28;20322;-74
2022/03/22 10:30:32;;;;;;;30.08;21.40;;;18.00;87.30;;;;;;5059403;28;20044;-74
2022/03/22 10:32:58;;;;;;;25.10;20.13;;;18.20;79.10;;;;;;5074117;28;20071;-73
2022/03/22 10:35:34;;;;;;;30.85;22.05;;;17.80;73.80;;;;;;5075769;28;20049;-73
2022/03/22 10:38:03;;;;;;;29.58;21.05;;;18.30;78.40;;;;;;5075701;28;20314;-74
2022/03/22 10:40:35;;;;;;;27.08;21.42;;;18.10;77.70;;;;;;5058913;28;20052;-73
2022/03/22 10:43:13;;;;;;;28.42;21.75;;;18.20;79.70;;;;;;5063411;28;20056;-73
2022/03/22 10:45:43;;;;;;;29.00;21.83;;;18.50;84.50;;;;;;5066966;28;20120;-73
2022/03/22 10:48:09;;;;;;;27.83;21.00;;;18.20;70.70;;;;;;5058915;28;20040;-73
2022/03/22 10:50:38;;;;;;;30.60;21.42;;;17.90;69.90;;;;;;5055296;28;20126;-73
2022/03/22 10:53:04;;;;;;;26.75;19.15;;;18.10;76.50;;;;;;5069157;28;20346;-73
2022/03/22 10:55:30;;;;;;;25.85;19.27;;;18.40;71.70;;;;;;5070331;28;20105;-74
2022/03/22 10:58:01;;;;;;;27.02;20.45;;;18.30;69.20;;;;;;5065263;28;20115;-73
2022/03/22 11:00:29;;;;;;;28.73;21.27;;;18.60;70.00;;;;;;5073464;28;20138;-74
2022/03/22 11:02:56;;;;;;;27.23;20.73;;;18.20;66.50;;;;;;5071684;28;20079;-74
2022/03/22 11:05:25;;;;;;;28.20;20.98;;;18.20;65.50;;;;;;5072992;28;20242;-73
2022/03/22 11:07:52;;;;;;;30.92;21.23;;;18.30;70.40;;;;;;5073114;28;20203;-75
2022/03/22 11:10:25;;;;;;;28.33;20.70;;;18.10;64.90;;;;;;5060693;28;20044;-74
2022/03/22 11:12:51;;;;;;;28.88;20.80;;;18.70;71.70;;;;;;5067060;28;20041;-73
2022/03/22 11:15:18;;;;;;;32.33;21.63;;;19.00;71.00;;;;;;5039752;28;20255;-74
2022/03/22 11:17:47;;;;;;;33.15;22.92;;;18.90;71.30;;;;;;5056465;28;20040;-72
2022/03/22 11:20:14;;;;;;;24.92;20.02;;;19.30;67.30;;;;;;5056751;28;20071;-73
2022/03/22 11:22:48;;;;;;;29.15;20.50;;;19.30;70.30;;;;;;5050573;28;20239;-74
2022/03/22 11:25:18;;;;;;;31.10;20.73;;;19.10;67.00;;;;;;5057028;28;20068;-73
2022/03/22 11:27:57;;;;;;;26.20;20.30;;;19.40;69.30;;;;;;5056813;28;20102;-74
2022/03/22 11:30:23;;;;;;;27.27;20.80;;;19.10;63.20;;;;;;5039616;28;20040;-72
2022/03/22 11:35:51;;;;;;;26.83;20.13;;;18.70;60.50;;;;;;5056045;28;20075;-73
2022/03/22 11:38:36;;;;;;;25.20;19.10;;;18.80;62.30;;;;;;5073186;28;20045;-74
2022/03/22 11:43:48;;;;;;;;;;;18.70;62.70;;;;;;5056863;28;20196;-73
2022/03/22 11:46:14;;;;;;;25.60;18.55;;;18.80;59.50;;;;;;5042436;28;19920;-73
2022/03/22 11:48:40;;;;;;;27.20;18.83;;;18.60;59.40;;;;;;5056428;28;20338;-73
2022/03/22 11:51:07;;;;;;;31.15;21.73;;;18.80;60.90;;;;;;5072956;28;20497;-72
2022/03/22 11:53:44;;;;;;;26.73;20.13;;;18.50;58.20;;;;;;5072905;28;20047;-73
2022/03/22 11:56:13;;;;;;;27.67;19.50;;;18.70;60.20;;;;;;5058550;28;20212;-72
2022/03/22 11:58:50;;;;;;;28.42;19.05;;;18.50;59.00;;;;;;5072862;28;20036;-73
2022/03/22 12:01:17;;;;;;;29.40;20.83;;;18.60;59.50;;;;;;5072834;28;20394;-74
2022/03/22 12:03:51;;;;;;;31.75;21.35;;;18.70;59.50;;;;;;5073026;28;20086;-74
2022/03/22 12:06:17;;;;;;;26.52;19.15;;;18.70;59.80;;;;;;5072541;28;20094;-74
2022/03/22 12:08:43;;;;;;;31.63;21.20;;;19.00;59.70;;;;;;5019597;28;20327;-73
2022/03/22 12:11:16;;;;;;;27.25;20.27;;;18.80;59.10;;;;;;5053592;28;20288;-74
2022/03/22 12:13:48;;;;;;;30.45;21.90;;;18.90;59.70;;;;;;5035713;28;20044;-72
2022/03/22 12:16:13;;;;;;;27.30;18.30;;;19.00;60.50;;;;;;5052635;28;20049;-74
2022/03/22 12:18:41;;;;;;;28.95;21.48;;;19.30;61.60;;;;;;5052394;28;20063;-73
2022/03/22 12:21:19;;;;;;;28.42;18.48;;;19.40;60.90;;;;;;5071983;28;20259;-72
2022/03/22 12:23:46;;;;;;;27.02;19.30;;;19.40;58.30;;;;;;5039374;28;20102;-72
2022/03/22 12:26:12;;;;;;;28.35;20.20;;;19.30;58.30;;;;;;5072363;28;20390;-72
2022/03/22 12:28:52;;;;;;;28.55;19.58;;;19.10;59.40;;;;;;5062597;28;20047;-70
2022/03/22 12:31:21;;;;;;;28.42;19.92;;;19.40;58.70;;;;;;5052120;28;20047;-72
2022/03/22 12:33:51;;;;;;;26.45;19.30;;;19.50;58.70;;;;;;5019273;28;20314;-71
2022/03/22 12:36:23;;;;;;;33.83;20.65;;;19.60;58.70;;;;;;5052354;28;20044;-72
2022/03/22 12:38:49;;;;;;;25.50;17.17;;;19.50;58.10;;;;;;5056728;28;20048;-73
2022/03/22 12:41:14;;;;;;;30.70;20.05;;;19.50;58.50;;;;;;5055650;28;20077;-74
2022/03/22 12:43:45;;;;;;;30.45;19.98;;;19.40;57.60;;;;;;5006200;28;20246;-73
2022/03/22 12:46:12;;;;;;;29.02;20.67;;;19.60;58.50;;;;;;5035089;28;20041;-74
2022/03/22 12:48:39;;;;;;;28.77;20.25;;;19.80;58.80;;;;;;5042276;28;20074;-73
2022/03/22 12:51:05;;;;;;;27.52;18.65;;;19.80;59.00;;;;;;5038604;28;20044;-74
2022/03/22 12:53:32;;;;;;;33.28;21.23;;;19.80;56.90;;;;;;5055465;28;20032;-73
2022/03/22 12:55:57;;;;;;;29.67;19.98;;;19.40;56.70;;;;;;5055307;28;20076;-72
2022/03/22 12:58:29;;;;;;;30.73;20.38;;;19.70;58.20;;;;;;5055053;28;20105;-72
2022/03/22 13:00:55;;;;;;;26.65;19.90;;;19.90;57.30;;;;;;5043524;28;20124;-74
2022/03/22 13:03:21;;;;;;;28.27;20.23;;;20.00;58.30;;;;;;5054876;28;20033;-74
2022/03/22 13:05:50;;;;;;;28.40;19.05;;;20.10;58.00;;;;;;5038373;28;20331;-73
2022/03/22 13:08:24;;;;;;;33.05;20.00;;;20.10;56.10;;;;;;5055426;28;20137;-74
2022/03/22 13:16:25;;;;;;;25.13;16.55;;;20.10;57.20;;;;;;5071818;28;20139;-74
2022/03/22 13:18:57;;;;;;;28.77;18.95;;;19.70;54.90;;;;;;5071272;28;20155;-73